sensor_id;sensor_type;location;lat;lon;timestamp;pressure;altitude;pressure_sealevel;temperature;humidity
11077;BME280;5591;42.626;23.380;2023-04-12T00:01:57;93291.91;;;10.68;100.00
11077;BME280;5591;42.626;23.380;2023-04-12T00:04:24;93279.53;;;10.50;100.00
11077;BME280;5591;42.626;23.380;2023-04-12T00:06:54;93295.09;;;10.39;100.00
11077;BME280;5591;42.626;23.380;2023-04-12T00:09:22;93285.50;;;10.57;100.00
11077;BME280;5591;42.626;23.380;2023-04-12T00:11:49;93241.72;;;10.27;100.00
11077;BME280;5591;42.626;23.380;2023-04-12T00:14:16;93268.22;;;10.50;100.00
11077;BME280;5591;42.626;23.380;2023-04-12T00:16:42;93271.25;;;10.47;100.00
11077;BME280;5591;42.626;23.380;2023-04-12T00:19:09;93275.00;;;10.26;100.00
11077;BME280;5591;42.626;23.380;2023-04-12T00:21:36;93277.13;;;10.42;100.00
11077;BME280;5591;42.626;23.380;2023-04-12T00:24:05;93254.31;;;10.49;100.00
11077;BME280;5591;42.626;23.380;2023-04-12T00:26:32;93256.66;;;10.57;100.00
11077;BME280;5591;42.626;23.380;2023-04-12T00:28:58;93256.88;;;10.56;100.00
11077;BME280;5591;42.626;23.380;2023-04-12T00:31:26;93265.78;;;10.55;100.00
11077;BME280;5591;42.626;23.380;2023-04-12T05:48:08;93324.53;;;10.78;100.00
11077;BME280;5591;42.626;23.380;2023-04-12T05:50:34;93325.91;;;10.87;100.00
11077;BME280;5591;42.626;23.380;2023-04-12T05:53:01;93321.56;;;10.99;97.75
11077;BME280;5591;42.626;23.380;2023-04-12T05:55:28;93309.53;;;11.16;95.78
11077;BME280;5591;42.626;23.380;2023-04-12T05:57:55;93330.28;;;10.25;98.73
11077;BME280;5591;42.626;23.380;2023-04-12T06:00:23;93310.03;;;10.76;96.68
11077;BME280;5591;42.626;23.380;2023-04-12T06:02:50;93312.75;;;10.56;96.78
11077;BME280;5591;42.626;23.380;2023-04-12T06:05:18;93328.13;;;10.84;95.09
11077;BME280;5591;42.626;23.380;2023-04-12T06:07:45;93331.78;;;10.83;93.83
11077;BME280;5591;42.626;23.380;2023-04-12T06:10:13;93376.19;;;10.47;94.85
11077;BME280;5591;42.626;23.380;2023-04-12T06:12:41;93355.75;;;10.11;97.12
11077;BME280;5591;42.626;23.380;2023-04-12T06:15:08;93337.16;;;10.19;97.55
11077;BME280;5591;42.626;23.380;2023-04-12T06:17:36;93315.78;;;10.16;97.66
11077;BME280;5591;42.626;23.380;2023-04-12T06:20:02;93355.56;;;9.87;100.00
11077;BME280;5591;42.626;23.380;2023-04-12T06:22:34;93363.13;;;10.34;98.44
11077;BME280;5591;42.626;23.380;2023-04-12T06:25:00;93394.06;;;9.93;100.00
11077;BME280;5591;42.626;23.380;2023-04-12T06:27:28;93364.16;;;10.33;99.03
11077;BME280;5591;42.626;23.380;2023-04-12T06:29:54;93358.41;;;9.85;100.00
11077;BME280;5591;42.626;23.380;2023-04-12T06:32:21;93329.22;;;9.69;100.00
11077;BME280;5591;42.626;23.380;2023-04-12T06:34:48;93362.66;;;9.80;100.00
11077;BME280;5591;42.626;23.380;2023-04-12T06:37:15;93370.66;;;9.98;100.00
11077;BME280;5591;42.626;23.380;2023-04-12T06:39:43;93363.25;;;9.82;100.00
11077;BME280;5591;42.626;23.380;2023-04-12T06:42:10;93359.84;;;9.62;100.00
11077;BME280;5591;42.626;23.380;2023-04-12T06:44:37;93356.97;;;9.89;100.00
11077;BME280;5591;42.626;23.380;2023-04-12T06:47:04;93358.03;;;9.63;100.00
11077;BME280;5591;42.626;23.380;2023-04-12T06:49:30;93350.59;;;10.36;100.00
11077;BME280;5591;42.626;23.380;2023-04-12T06:51:57;93375.22;;;10.35;100.00
11077;BME280;5591;42.626;23.380;2023-04-12T06:54:24;93221.06;;;9.49;100.00
11077;BME280;5591;42.626;23.380;2023-04-12T06:56:52;93364.63;;;10.04;100.00
11077;BME280;5591;42.626;23.380;2023-04-12T06:59:19;93338.75;;;10.27;100.00
11077;BME280;5591;42.626;23.380;2023-04-12T07:01:45;93346.97;;;10.37;100.00
11077;BME280;5591;42.626;23.380;2023-04-12T07:04:12;93337.94;;;10.70;100.00
11077;BME280;5591;42.626;23.380;2023-04-12T07:06:39;93335.06;;;10.72;100.00
11077;BME280;5591;42.626;23.380;2023-04-12T07:09:06;93343.38;;;10.69;99.34
11077;BME280;5591;42.626;23.380;2023-04-12T07:11:33;93338.16;;;10.62;97.89
11077;BME280;5591;42.626;23.380;2023-04-12T07:14:01;93333.03;;;11.05;95.25
11077;BME280;5591;42.626;23.380;2023-04-12T07:16:29;93344.13;;;11.07;95.58
11077;BME280;5591;42.626;23.380;2023-04-12T07:18:58;93335.59;;;10.87;96.50
11077;BME280;5591;42.626;23.380;2023-04-12T07:21:25;93331.84;;;11.56;91.14
11077;BME280;5591;42.626;23.380;2023-04-12T07:23:51;93349.03;;;10.72;90.77
11077;BME280;5591;42.626;23.380;2023-04-12T07:26:18;93326.94;;;11.66;88.40
11077;BME280;5591;42.626;23.380;2023-04-12T07:28:46;93330.19;;;10.82;91.32
11077;BME280;5591;42.626;23.380;2023-04-12T07:31:14;93288.41;;;11.05;90.00
11077;BME280;5591;42.626;23.380;2023-04-12T07:33:41;93326.69;;;11.43;89.78
11077;BME280;5591;42.626;23.380;2023-04-12T07:36:08;93328.78;;;11.84;86.46
11077;BME280;5591;42.626;23.380;2023-04-12T07:38:34;93337.91;;;11.57;88.32
11077;BME280;5591;42.626;23.380;2023-04-12T07:41:01;93313.88;;;11.96;82.09
11077;BME280;5591;42.626;23.380;2023-04-12T07:43:28;93321.31;;;11.99;82.80
11077;BME280;5591;42.626;23.380;2023-04-12T07:45:55;93323.03;;;11.69;84.16
11077;BME280;5591;42.626;23.380;2023-04-12T07:48:23;93332.75;;;11.44;84.01
11077;BME280;5591;42.626;23.380;2023-04-12T07:50:50;93318.13;;;11.30;88.13
11077;BME280;5591;42.626;23.380;2023-04-12T07:53:18;93362.78;;;10.99;88.02
11077;BME280;5591;42.626;23.380;2023-04-12T07:55:45;93333.59;;;11.13;87.83
11077;BME280;5591;42.626;23.380;2023-04-12T07:58:12;93333.72;;;10.94;87.82
11077;BME280;5591;42.626;23.380;2023-04-12T08:00:38;93314.03;;;12.19;81.28
11077;BME280;5591;42.626;23.380;2023-04-12T08:03:05;93319.94;;;11.96;77.64
11077;BME280;5591;42.626;23.380;2023-04-12T08:05:33;93314.69;;;11.54;81.46
11077;BME280;5591;42.626;23.380;2023-04-12T08:08:00;93276.13;;;11.90;77.69
11077;BME280;5591;42.626;23.380;2023-04-12T08:10:28;93307.00;;;12.60;72.24
11077;BME280;5591;42.626;23.380;2023-04-12T08:12:55;93285.53;;;11.98;69.04
11077;BME280;5591;42.626;23.380;2023-04-12T08:15:22;93307.88;;;11.89;70.74
11077;BME280;5591;42.626;23.380;2023-04-12T08:17:49;93307.56;;;12.32;70.14
11077;BME280;5591;42.626;23.380;2023-04-12T08:20:16;93292.41;;;12.93;66.59
11077;BME280;5591;42.626;23.380;2023-04-12T08:22:45;93295.31;;;11.73;67.38
11077;BME280;5591;42.626;23.380;2023-04-12T08:25:12;93314.31;;;11.26;65.60
11077;BME280;5591;42.626;23.380;2023-04-12T08:27:41;93324.81;;;11.50;64.96
11077;BME280;5591;42.626;23.380;2023-04-12T08:30:09;93334.63;;;11.37;62.95
11077;BME280;5591;42.626;23.380;2023-04-12T08:32:36;93236.88;;;10.61;60.29
11077;BME280;5591;42.626;23.380;2023-04-12T08:35:03;93225.94;;;11.13;59.33
11077;BME280;5591;42.626;23.380;2023-04-12T08:37:30;93310.13;;;11.67;58.47
11077;BME280;5591;42.626;23.380;2023-04-12T08:40:02;93299.72;;;12.15;57.51
11077;BME280;5591;42.626;23.380;2023-04-12T08:42:31;93314.06;;;11.76;58.07
11077;BME280;5591;42.626;23.380;2023-04-12T08:44:58;93307.97;;;12.00;57.71
11077;BME280;5591;42.626;23.380;2023-04-12T08:47:25;93303.13;;;12.62;56.61
11077;BME280;5591;42.626;23.380;2023-04-12T08:49:51;93296.22;;;12.79;56.52
11077;BME280;5591;42.626;23.380;2023-04-12T08:52:18;93316.28;;;12.92;54.38
11077;BME280;5591;42.626;23.380;2023-04-12T08:54:45;93321.72;;;12.20;54.46
11077;BME280;5591;42.626;23.380;2023-04-12T08:57:14;93300.88;;;12.19;55.52
11077;BME280;5591;42.626;23.380;2023-04-12T08:59:45;93303.78;;;12.76;53.80
11077;BME280;5591;42.626;23.380;2023-04-12T09:02:14;93305.31;;;12.65;54.92
11077;BME280;5591;42.626;23.380;2023-04-12T09:04:48;93256.56;;;12.63;54.90
11077;BME280;5591;42.626;23.380;2023-04-12T09:07:15;93280.47;;;13.55;54.15
11077;BME280;5591;42.626;23.380;2023-04-12T09:09:42;93270.94;;;13.77;53.13
11077;BME280;5591;42.626;23.380;2023-04-12T09:12:09;93272.59;;;12.61;55.85
11077;BME280;5591;42.626;23.380;2023-04-12T09:14:39;93279.88;;;13.30;54.44
11077;BME280;5591;42.626;23.380;2023-04-12T09:17:20;93302.44;;;12.85;55.16
11077;BME280;5591;42.626;23.380;2023-04-12T09:19:47;93289.00;;;12.75;54.74
11077;BME280;5591;42.626;23.380;2023-04-12T09:22:14;93273.59;;;12.90;54.22
11077;BME280;5591;42.626;23.380;2023-04-12T09:24:45;93280.81;;;13.35;53.20
11077;BME280;5591;42.626;23.380;2023-04-12T09:27:14;93273.13;;;13.68;52.99
11077;BME280;5591;42.626;23.380;2023-04-12T09:29:42;93273.09;;;14.03;51.52
11077;BME280;5591;42.626;23.380;2023-04-12T09:32:10;93215.03;;;13.40;50.59
11077;BME280;5591;42.626;23.380;2023-04-12T09:34:36;93231.41;;;13.08;49.21
11077;BME280;5591;42.626;23.380;2023-04-12T09:37:11;93312.34;;;13.65;48.95
11077;BME280;5591;42.626;23.380;2023-04-12T09:39:39;93280.00;;;13.35;49.07
11077;BME280;5591;42.626;23.380;2023-04-12T09:42:07;93284.59;;;13.51;48.32
11077;BME280;5591;42.626;23.380;2023-04-12T09:44:34;93281.38;;;13.72;47.93
11077;BME280;5591;42.626;23.380;2023-04-12T09:47:03;93257.44;;;13.73;46.66
11077;BME280;5591;42.626;23.380;2023-04-12T09:49:37;93236.56;;;13.72;47.60
11077;BME280;5591;42.626;23.380;2023-04-12T09:52:05;93250.84;;;13.99;47.31
11077;BME280;5591;42.626;23.380;2023-04-12T09:54:36;93260.53;;;13.82;47.82
11077;BME280;5591;42.626;23.380;2023-04-12T09:57:05;93231.03;;;14.64;46.59
11077;BME280;5591;42.626;23.380;2023-04-12T09:59:35;93254.50;;;14.21;46.19
11077;BME280;5591;42.626;23.380;2023-04-12T10:02:06;93172.78;;;13.86;46.82
11077;BME280;5591;42.626;23.380;2023-04-12T10:04:35;93229.53;;;14.68;46.51
11077;BME280;5591;42.626;23.380;2023-04-12T10:07:03;93207.97;;;14.43;46.90
11077;BME280;5591;42.626;23.380;2023-04-12T10:09:30;93207.34;;;14.52;46.89
11077;BME280;5591;42.626;23.380;2023-04-12T10:11:58;93228.69;;;14.23;48.38
11077;BME280;5591;42.626;23.380;2023-04-12T10:14:27;93232.75;;;13.68;44.46
11077;BME280;5591;42.626;23.380;2023-04-12T10:16:56;93175.16;;;13.14;43.00
11077;BME280;5591;42.626;23.380;2023-04-12T10:19:26;93224.09;;;13.21;42.13
11077;BME280;5591;42.626;23.380;2023-04-12T10:21:53;93227.50;;;13.79;40.51
11077;BME280;5591;42.626;23.380;2023-04-12T10:24:21;93293.66;;;13.43;40.38
11077;BME280;5591;42.626;23.380;2023-04-12T10:26:48;93209.41;;;13.14;39.96
11077;BME280;5591;42.626;23.380;2023-04-12T10:29:23;93202.66;;;13.06;40.35
11077;BME280;5591;42.626;23.380;2023-04-12T10:31:51;93229.44;;;13.72;39.60
11077;BME280;5591;42.626;23.380;2023-04-12T10:34:22;93197.28;;;13.24;40.93
11077;BME280;5591;42.626;23.380;2023-04-12T10:36:53;93222.94;;;13.63;40.80
11077;BME280;5591;42.626;23.380;2023-04-12T10:39:35;93212.63;;;13.73;41.63
11077;BME280;5591;42.626;23.380;2023-04-12T10:42:19;93203.78;;;13.56;41.74
11077;BME280;5591;42.626;23.380;2023-04-12T10:44:47;93182.31;;;14.27;41.52
11077;BME280;5591;42.626;23.380;2023-04-12T10:47:14;93100.97;;;13.96;40.93
11077;BME280;5591;42.626;23.380;2023-04-12T10:50:19;93211.06;;;14.40;40.03
11077;BME280;5591;42.626;23.380;2023-04-12T10:55:51;93184.47;;;14.58;38.93
11077;BME280;5591;42.626;23.380;2023-04-12T10:58:56;93176.78;;;14.73;38.80
11077;BME280;5591;42.626;23.380;2023-04-12T11:01:23;93183.19;;;13.93;37.05
11077;BME280;5591;42.626;23.380;2023-04-12T11:04:13;93174.63;;;14.25;36.29
11077;BME280;5591;42.626;23.380;2023-04-12T11:06:42;93160.38;;;13.98;36.79
11077;BME280;5591;42.626;23.380;2023-04-12T11:09:23;93167.75;;;14.24;38.38
11077;BME280;5591;42.626;23.380;2023-04-12T11:11:56;93172.72;;;14.65;38.76
11077;BME280;5591;42.626;23.380;2023-04-12T11:14:26;93096.53;;;13.85;37.49
11077;BME280;5591;42.626;23.380;2023-04-12T11:17:20;93205.34;;;14.31;36.28
11077;BME280;5591;42.626;23.380;2023-04-12T11:19:50;93184.13;;;14.26;35.70
11077;BME280;5591;42.626;23.380;2023-04-12T11:22:19;93200.50;;;14.00;35.67
11077;BME280;5591;42.626;23.380;2023-04-12T11:24:48;93180.97;;;14.13;34.79
11077;BME280;5591;42.626;23.380;2023-04-12T11:27:18;93176.56;;;15.07;35.14
11077;BME280;5591;42.626;23.380;2023-04-12T11:29:47;93156.88;;;14.98;35.57
11077;BME280;5591;42.626;23.380;2023-04-12T11:32:14;93209.66;;;14.93;35.15
11077;BME280;5591;42.626;23.380;2023-04-12T11:34:43;93194.59;;;14.10;35.95
11077;BME280;5591;42.626;23.380;2023-04-12T11:37:10;93171.28;;;14.74;35.71
11077;BME280;5591;42.626;23.380;2023-04-12T11:39:39;93171.22;;;15.73;34.36
11077;BME280;5591;42.626;23.380;2023-04-12T11:42:06;93169.38;;;15.73;34.78
11077;BME280;5591;42.626;23.380;2023-04-12T11:44:39;93156.06;;;15.47;35.45
11077;BME280;5591;42.626;23.380;2023-04-12T11:47:12;93147.16;;;15.74;35.28
11077;BME280;5591;42.626;23.380;2023-04-12T11:49:42;93157.09;;;16.53;33.15
11077;BME280;5591;42.626;23.380;2023-04-12T11:52:09;93160.22;;;14.93;33.82
11077;BME280;5591;42.626;23.380;2023-04-12T11:54:37;93161.91;;;15.49;33.82
11077;BME280;5591;42.626;23.380;2023-04-12T11:57:03;93195.53;;;15.91;33.50
11077;BME280;5591;42.626;23.380;2023-04-12T11:59:31;93207.06;;;16.45;33.16
11077;BME280;5591;42.626;23.380;2023-04-12T12:02:00;93192.22;;;15.63;34.05
11077;BME280;5591;42.626;23.380;2023-04-12T12:04:28;93159.91;;;15.99;33.66
11077;BME280;5591;42.626;23.380;2023-04-12T12:06:56;93174.78;;;15.62;33.88
11077;BME280;5591;42.626;23.380;2023-04-12T12:09:23;93170.59;;;15.66;34.14
11077;BME280;5591;42.626;23.380;2023-04-12T12:11:52;93182.78;;;15.67;34.56
11077;BME280;5591;42.626;23.380;2023-04-12T12:14:19;93153.84;;;16.73;33.43
11077;BME280;5591;42.626;23.380;2023-04-12T12:16:51;93167.47;;;15.90;34.33
11077;BME280;5591;42.626;23.380;2023-04-12T12:19:28;93176.56;;;14.91;36.25
11077;BME280;5591;42.626;23.380;2023-04-12T12:22:08;93066.88;;;15.04;34.89
11077;BME280;5591;42.626;23.380;2023-04-12T12:24:35;93171.78;;;16.66;33.72
11077;BME280;5591;42.626;23.380;2023-04-12T12:27:03;93161.56;;;16.05;34.06
11077;BME280;5591;42.626;23.380;2023-04-12T12:29:34;93158.38;;;17.81;33.24
11077;BME280;5591;42.626;23.380;2023-04-12T12:32:02;93147.25;;;17.07;33.61
11077;BME280;5591;42.626;23.380;2023-04-12T12:34:32;93171.94;;;17.44;33.35
11077;BME280;5591;42.626;23.380;2023-04-12T12:36:59;93159.91;;;16.42;34.17
11077;BME280;5591;42.626;23.380;2023-04-12T12:39:26;93158.22;;;16.57;34.30
11077;BME280;5591;42.626;23.380;2023-04-12T12:41:53;93169.38;;;16.64;33.73
11077;BME280;5591;42.626;23.380;2023-04-12T12:44:20;93209.28;;;16.10;33.07
11077;BME280;5591;42.626;23.380;2023-04-12T12:46:47;93163.41;;;15.83;34.86
11077;BME280;5591;42.626;23.380;2023-04-12T12:49:14;93176.72;;;17.15;34.15
11077;BME280;5591;42.626;23.380;2023-04-12T12:51:42;93155.25;;;15.84;35.42
11077;BME280;5591;42.626;23.380;2023-04-12T12:54:09;93165.84;;;16.32;34.59
11077;BME280;5591;42.626;23.380;2023-04-12T12:56:36;93172.44;;;16.51;34.53
11077;BME280;5591;42.626;23.380;2023-04-12T12:59:03;93162.19;;;17.23;33.11
11077;BME280;5591;42.626;23.380;2023-04-12T13:01:30;93179.50;;;16.99;32.83
11077;BME280;5591;42.626;23.380;2023-04-12T13:03:56;93154.44;;;17.11;32.59
11077;BME280;5591;42.626;23.380;2023-04-12T13:06:23;93176.38;;;16.75;32.36
11077;BME280;5591;42.626;23.380;2023-04-12T13:08:54;93177.53;;;16.84;33.16
11077;BME280;5591;42.626;23.380;2023-04-12T13:11:20;93176.09;;;17.03;32.79
11077;BME280;5591;42.626;23.380;2023-04-12T13:13:47;93181.03;;;17.21;32.66
11077;BME280;5591;42.626;23.380;2023-04-12T13:16:14;93180.53;;;17.29;32.94
11077;BME280;5591;42.626;23.380;2023-04-12T13:18:42;93094.56;;;15.78;34.28
11077;BME280;5591;42.626;23.380;2023-04-12T13:21:09;93189.91;;;17.05;33.08
11077;BME280;5591;42.626;23.380;2023-04-12T13:23:35;93175.75;;;17.58;32.42
11077;BME280;5591;42.626;23.380;2023-04-12T13:26:05;93168.97;;;17.04;32.98
11077;BME280;5591;42.626;23.380;2023-04-12T13:28:32;93165.94;;;16.64;32.57
11077;BME280;5591;42.626;23.380;2023-04-12T13:30:59;93166.75;;;17.63;32.18
11077;BME280;5591;42.626;23.380;2023-04-12T13:33:26;93188.09;;;16.79;33.48
11077;BME280;5591;42.626;23.380;2023-04-12T13:35:52;93179.19;;;16.90;33.20
11077;BME280;5591;42.626;23.380;2023-04-12T13:38:19;93183.88;;;17.87;32.74
11077;BME280;5591;42.626;23.380;2023-04-12T13:40:46;93216.16;;;17.69;32.89
11077;BME280;5591;42.626;23.380;2023-04-12T13:43:14;93127.63;;;17.08;33.43
11077;BME280;5591;42.626;23.380;2023-04-12T13:45:41;93187.16;;;17.99;33.34
11077;BME280;5591;42.626;23.380;2023-04-12T13:48:09;93178.41;;;18.09;32.62
11077;BME280;5591;42.626;23.380;2023-04-12T13:50:35;93192.63;;;17.10;33.94
11077;BME280;5591;42.626;23.380;2023-04-12T13:53:02;93198.41;;;18.26;32.96
11077;BME280;5591;42.626;23.380;2023-04-12T13:55:29;93195.84;;;16.59;34.41
11077;BME280;5591;42.626;23.380;2023-04-12T13:57:56;93171.53;;;17.62;33.70
11077;BME280;5591;42.626;23.380;2023-04-12T14:00:24;93193.03;;;16.71;34.28
11077;BME280;5591;42.626;23.380;2023-04-12T14:02:51;93188.81;;;17.69;33.69
11077;BME280;5591;42.626;23.380;2023-04-12T14:05:18;93194.19;;;18.30;33.13
11077;BME280;5591;42.626;23.380;2023-04-12T14:07:45;93207.44;;;19.12;32.35
11077;BME280;5591;42.626;23.380;2023-04-12T14:10:14;93183.69;;;18.65;32.53
11077;BME280;5591;42.626;23.380;2023-04-12T14:12:40;93171.50;;;18.84;32.60
11077;BME280;5591;42.626;23.380;2023-04-12T14:15:08;93187.22;;;18.91;32.48
11077;BME280;5591;42.626;23.380;2023-04-12T14:17:36;93169.88;;;18.63;32.56
11077;BME280;5591;42.626;23.380;2023-04-12T14:20:04;93182.72;;;19.51;32.05
11077;BME280;5591;42.626;23.380;2023-04-12T14:22:32;93162.97;;;18.72;32.58
11077;BME280;5591;42.626;23.380;2023-04-12T14:24:59;93197.06;;;19.10;32.04
11077;BME280;5591;42.626;23.380;2023-04-12T14:27:26;93186.22;;;19.22;31.25
11077;BME280;5591;42.626;23.380;2023-04-12T14:29:52;93195.69;;;18.88;31.30
11077;BME280;5591;42.626;23.380;2023-04-12T14:32:19;93200.97;;;18.78;31.43
11077;BME280;5591;42.626;23.380;2023-04-12T14:34:48;93183.97;;;18.02;32.01
11077;BME280;5591;42.626;23.380;2023-04-12T14:37:15;93196.19;;;18.75;31.71
11077;BME280;5591;42.626;23.380;2023-04-12T14:39:41;93204.44;;;18.68;32.07
11077;BME280;5591;42.626;23.380;2023-04-12T14:42:08;93204.81;;;17.43;33.19
11077;BME280;5591;42.626;23.380;2023-04-12T14:44:35;93212.88;;;18.50;32.23
11077;BME280;5591;42.626;23.380;2023-04-12T14:47:02;93215.59;;;18.09;32.83
11077;BME280;5591;42.626;23.380;2023-04-12T14:49:29;93231.88;;;17.76;33.24
11077;BME280;5591;42.626;23.380;2023-04-12T14:51:57;93214.16;;;18.38;32.66
11077;BME280;5591;42.626;23.380;2023-04-12T14:54:24;93230.53;;;18.20;33.03
11077;BME280;5591;42.626;23.380;2023-04-12T14:56:51;93214.50;;;18.56;32.89
11077;BME280;5591;42.626;23.380;2023-04-12T14:59:17;93217.56;;;19.20;32.34
11077;BME280;5591;42.626;23.380;2023-04-12T15:01:44;93237.63;;;18.61;32.91
11077;BME280;5591;42.626;23.380;2023-04-12T15:04:11;93222.72;;;18.50;32.37
11077;BME280;5591;42.626;23.380;2023-04-12T15:06:38;93219.97;;;18.35;32.84
11077;BME280;5591;42.626;23.380;2023-04-12T15:09:08;93225.28;;;19.76;31.49
11077;BME280;5591;42.626;23.380;2023-04-12T15:11:35;93241.66;;;18.73;32.84
11077;BME280;5591;42.626;23.380;2023-04-12T15:14:02;93243.16;;;18.49;32.66
11077;BME280;5591;42.626;23.380;2023-04-12T15:16:31;93254.72;;;18.23;32.73
11077;BME280;5591;42.626;23.380;2023-04-12T15:18:59;93269.28;;;18.16;32.66
11077;BME280;5591;42.626;23.380;2023-04-12T15:21:26;93251.72;;;18.10;33.29
11077;BME280;5591;42.626;23.380;2023-04-12T15:23:53;93251.13;;;19.71;31.51
11077;BME280;5591;42.626;23.380;2023-04-12T15:26:21;93253.97;;;20.44;30.59
11077;BME280;5591;42.626;23.380;2023-04-12T15:28:48;93264.69;;;18.48;32.20
11077;BME280;5591;42.626;23.380;2023-04-12T15:31:15;93269.53;;;18.66;32.35
11077;BME280;5591;42.626;23.380;2023-04-12T15:33:42;93259.31;;;17.96;33.33
11077;BME280;5591;42.626;23.380;2023-04-12T15:36:11;93284.41;;;17.43;33.93
11077;BME280;5591;42.626;23.380;2023-04-12T15:38:41;93212.59;;;17.95;33.35
11077;BME280;5591;42.626;23.380;2023-04-12T15:41:09;93249.44;;;19.05;31.94
11077;BME280;5591;42.626;23.380;2023-04-12T15:43:37;93252.44;;;17.59;32.99
11077;BME280;5591;42.626;23.380;2023-04-12T15:46:06;93247.41;;;18.45;32.30
11077;BME280;5591;42.626;23.380;2023-04-12T15:48:33;93246.03;;;17.55;33.22
11077;BME280;5591;42.626;23.380;2023-04-12T15:51:03;93260.00;;;17.41;33.78
11077;BME280;5591;42.626;23.380;2023-04-12T15:53:30;93259.91;;;19.46;31.99
11077;BME280;5591;42.626;23.380;2023-04-12T15:55:57;93245.22;;;17.91;32.94
11077;BME280;5591;42.626;23.380;2023-04-12T15:58:25;93267.78;;;17.52;33.48
11077;BME280;5591;42.626;23.380;2023-04-12T16:00:53;93271.28;;;17.58;33.52
11077;BME280;5591;42.626;23.380;2023-04-12T16:03:21;93275.94;;;17.46;33.99
11077;BME280;5591;42.626;23.380;2023-04-12T16:05:49;93284.28;;;17.33;34.51
11077;BME280;5591;42.626;23.380;2023-04-12T16:08:17;93274.09;;;17.46;34.29
11077;BME280;5591;42.626;23.380;2023-04-12T16:10:44;93289.75;;;17.79;34.02
11077;BME280;5591;42.626;23.380;2023-04-12T16:13:11;93281.50;;;17.44;34.57
11077;BME280;5591;42.626;23.380;2023-04-12T16:15:38;93280.88;;;17.63;33.97
11077;BME280;5591;42.626;23.380;2023-04-12T16:18:06;93282.31;;;17.81;34.35
11077;BME280;5591;42.626;23.380;2023-04-12T16:20:33;93275.56;;;18.00;33.93
11077;BME280;5591;42.626;23.380;2023-04-12T16:23:00;93270.34;;;18.71;33.43
11077;BME280;5591;42.626;23.380;2023-04-12T16:25:28;93260.16;;;17.61;34.67
11077;BME280;5591;42.626;23.380;2023-04-12T16:27:54;93262.72;;;17.24;35.40
11077;BME280;5591;42.626;23.380;2023-04-12T16:30:22;93269.28;;;16.42;36.25
11077;BME280;5591;42.626;23.380;2023-04-12T16:32:50;93288.25;;;15.80;37.40
11077;BME280;5591;42.626;23.380;2023-04-12T16:35:18;93313.75;;;14.81;38.82
11077;BME280;5591;42.626;23.380;2023-04-12T16:37:45;93308.19;;;14.26;39.63
11077;BME280;5591;42.626;23.380;2023-04-12T16:40:12;93308.44;;;13.90;40.56
11077;BME280;5591;42.626;23.380;2023-04-12T16:42:42;93298.81;;;13.73;40.69
11077;BME280;5591;42.626;23.380;2023-04-12T16:45:10;93329.31;;;13.57;41.19
11077;BME280;5591;42.626;23.380;2023-04-12T16:47:38;93310.38;;;13.60;40.94
11077;BME280;5591;42.626;23.380;2023-04-12T16:50:06;93307.88;;;13.65;41.43
11077;BME280;5591;42.626;23.380;2023-04-12T16:52:35;93316.22;;;13.51;41.94
11077;BME280;5591;42.626;23.380;2023-04-12T16:55:03;93316.66;;;13.36;41.89
11077;BME280;5591;42.626;23.380;2023-04-12T16:57:30;93324.00;;;13.34;42.56
11077;BME280;5591;42.626;23.380;2023-04-12T16:59:57;93320.66;;;13.27;42.48
11077;BME280;5591;42.626;23.380;2023-04-12T17:02:24;93324.63;;;13.07;42.69
11077;BME280;5591;42.626;23.380;2023-04-12T17:04:51;93345.03;;;13.23;42.59
11077;BME280;5591;42.626;23.380;2023-04-12T17:07:18;93347.63;;;12.82;43.00
11077;BME280;5591;42.626;23.380;2023-04-12T17:09:46;93355.41;;;12.59;43.49
11077;BME280;5591;42.626;23.380;2023-04-12T17:12:13;93363.13;;;12.42;43.81
11077;BME280;5591;42.626;23.380;2023-04-12T17:14:40;93360.09;;;12.57;43.58
11077;BME280;5591;42.626;23.380;2023-04-12T17:17:06;93358.22;;;12.46;44.16
11077;BME280;5591;42.626;23.380;2023-04-12T17:19:33;93352.81;;;12.41;44.33
11077;BME280;5591;42.626;23.380;2023-04-12T17:22:00;93363.97;;;12.54;44.06
11077;BME280;5591;42.626;23.380;2023-04-12T17:24:27;93366.41;;;12.38;44.01
11077;BME280;5591;42.626;23.380;2023-04-12T17:26:56;93372.47;;;12.38;44.80
11077;BME280;5591;42.626;23.380;2023-04-12T17:29:23;93375.69;;;12.40;44.83
11077;BME280;5591;42.626;23.380;2023-04-12T17:31:52;93385.69;;;12.14;45.64
11077;BME280;5591;42.626;23.380;2023-04-12T17:34:18;93387.59;;;12.25;44.90
11077;BME280;5591;42.626;23.380;2023-04-12T17:36:45;93403.09;;;12.15;45.67
11077;BME280;5591;42.626;23.380;2023-04-12T17:39:13;93393.13;;;12.17;45.18
11077;BME280;5591;42.626;23.380;2023-04-12T17:41:40;93376.91;;;12.02;45.50
11077;BME280;5591;42.626;23.380;2023-04-12T17:44:08;93400.25;;;12.17;46.28
11077;BME280;5591;42.626;23.380;2023-04-12T17:46:35;93402.59;;;11.82;46.17
11077;BME280;5591;42.626;23.380;2023-04-12T17:49:02;93398.03;;;11.71;46.55
11077;BME280;5591;42.626;23.380;2023-04-12T17:51:31;93382.19;;;11.78;46.15
11077;BME280;5591;42.626;23.380;2023-04-12T17:53:57;93392.53;;;11.97;46.74
11077;BME280;5591;42.626;23.380;2023-04-12T17:56:24;93354.66;;;11.62;47.30
11077;BME280;5591;42.626;23.380;2023-04-12T17:58:51;93407.34;;;11.92;47.31
11077;BME280;5591;42.626;23.380;2023-04-12T18:01:20;93413.28;;;12.05;47.04
11077;BME280;5591;42.626;23.380;2023-04-12T18:03:47;93427.97;;;11.95;47.27
11077;BME280;5591;42.626;23.380;2023-04-12T18:06:14;93421.44;;;11.97;46.72
11077;BME280;5591;42.626;23.380;2023-04-12T18:08:42;93416.88;;;11.93;46.88
11077;BME280;5591;42.626;23.380;2023-04-12T18:11:11;93422.34;;;11.91;46.50
11077;BME280;5591;42.626;23.380;2023-04-12T18:13:38;93431.88;;;12.10;46.68
11077;BME280;5591;42.626;23.380;2023-04-12T18:16:05;93427.75;;;11.72;47.11
11077;BME280;5591;42.626;23.380;2023-04-12T18:18:33;93438.31;;;11.65;47.85
11077;BME280;5591;42.626;23.380;2023-04-12T18:21:02;93440.53;;;11.68;46.88
11077;BME280;5591;42.626;23.380;2023-04-12T18:23:28;93442.59;;;11.84;46.90